sensor_id;sensor_type;location;lat;lon;timestamp;P1;durP1;ratioP1;P2;durP2;ratioP2
6757;SDS011;3416;53.074;8.822;2023-06-19T00:01:44;7.63;;;6.97;;
6757;SDS011;3416;53.074;8.822;2023-06-19T00:04:10;7.80;;;7.10;;
6757;SDS011;3416;53.074;8.822;2023-06-19T00:06:38;9.67;;;7.67;;
6757;SDS011;3416;53.074;8.822;2023-06-19T00:09:06;9.30;;;8.40;;
6757;SDS011;3416;53.074;8.822;2023-06-19T00:11:35;10.07;;;9.00;;
6757;SDS011;3416;53.074;8.822;2023-06-19T00:14:02;7.33;;;6.73;;
6757;SDS011;3416;53.074;8.822;2023-06-19T00:16:29;7.90;;;7.20;;
6757;SDS011;3416;53.074;8.822;2023-06-19T00:18:57;7.80;;;7.00;;
6757;SDS011;3416;53.074;8.822;2023-06-19T00:21:25;8.00;;;7.40;;
6757;SDS011;3416;53.074;8.822;2023-06-19T00:23:52;7.40;;;6.80;;
6757;SDS011;3416;53.074;8.822;2023-06-19T00:26:20;7.90;;;7.20;;
6757;SDS011;3416;53.074;8.822;2023-06-19T00:28:49;9.10;;;8.07;;
6757;SDS011;3416;53.074;8.822;2023-06-19T00:31:17;8.50;;;7.80;;
6757;SDS011;3416;53.074;8.822;2023-06-19T00:33:44;8.50;;;7.63;;
6757;SDS011;3416;53.074;8.822;2023-06-19T00:36:14;8.03;;;7.23;;
6757;SDS011;3416;53.074;8.822;2023-06-19T00:38:45;8.70;;;8.00;;
6757;SDS011;3416;53.074;8.822;2023-06-19T00:41:13;6.97;;;6.37;;
6757;SDS011;3416;53.074;8.822;2023-06-19T00:43:41;8.53;;;7.83;;
6757;SDS011;3416;53.074;8.822;2023-06-19T00:46:09;8.57;;;7.90;;
6757;SDS011;3416;53.074;8.822;2023-06-19T00:48:37;8.90;;;8.20;;
6757;SDS011;3416;53.074;8.822;2023-06-19T00:51:07;8.40;;;7.60;;
6757;SDS011;3416;53.074;8.822;2023-06-19T00:53:34;8.27;;;7.57;;
6757;SDS011;3416;53.074;8.822;2023-06-19T00:56:01;9.30;;;8.50;;
6757;SDS011;3416;53.074;8.822;2023-06-19T00:58:30;9.23;;;8.43;;
6757;SDS011;3416;53.074;8.822;2023-06-19T01:00:58;8.80;;;7.83;;
6757;SDS011;3416;53.074;8.822;2023-06-19T01:03:26;12.03;;;7.93;;
6757;SDS011;3416;53.074;8.822;2023-06-19T01:05:53;9.27;;;8.47;;
6757;SDS011;3416;53.074;8.822;2023-06-19T01:08:28;8.77;;;7.97;;
6757;SDS011;3416;53.074;8.822;2023-06-19T01:11:11;8.60;;;7.87;;
6757;SDS011;3416;53.074;8.822;2023-06-19T01:13:41;9.00;;;8.23;;
6757;SDS011;3416;53.074;8.822;2023-06-19T01:16:11;8.80;;;8.00;;
6757;SDS011;3416;53.074;8.822;2023-06-19T01:18:41;9.97;;;9.07;;
6757;SDS011;3416;53.074;8.822;2023-06-19T01:21:09;9.30;;;8.40;;
6757;SDS011;3416;53.074;8.822;2023-06-19T01:23:39;9.10;;;8.40;;
6757;SDS011;3416;53.074;8.822;2023-06-19T01:26:06;9.13;;;8.27;;
6757;SDS011;3416;53.074;8.822;2023-06-19T01:28:33;9.20;;;8.30;;
6757;SDS011;3416;53.074;8.822;2023-06-19T01:31:02;9.57;;;8.57;;
6757;SDS011;3416;53.074;8.822;2023-06-19T01:33:33;10.23;;;9.30;;
6757;SDS011;3416;53.074;8.822;2023-06-19T01:36:04;9.37;;;8.57;;
6757;SDS011;3416;53.074;8.822;2023-06-19T01:38:33;9.47;;;8.67;;
6757;SDS011;3416;53.074;8.822;2023-06-19T01:41:02;9.90;;;8.97;;
6757;SDS011;3416;53.074;8.822;2023-06-19T01:43:31;8.57;;;7.77;;
6757;SDS011;3416;53.074;8.822;2023-06-19T01:45:58;8.77;;;7.87;;
6757;SDS011;3416;53.074;8.822;2023-06-19T01:48:26;9.00;;;8.20;;
6757;SDS011;3416;53.074;8.822;2023-06-19T01:50:54;8.47;;;7.77;;
6757;SDS011;3416;53.074;8.822;2023-06-19T01:53:21;8.27;;;7.40;;
6757;SDS011;3416;53.074;8.822;2023-06-19T01:55:48;9.17;;;8.37;;
6757;SDS011;3416;53.074;8.822;2023-06-19T01:58:16;8.67;;;7.97;;
6757;SDS011;3416;53.074;8.822;2023-06-19T02:00:43;8.87;;;8.00;;
6757;SDS011;3416;53.074;8.822;2023-06-19T02:03:10;8.40;;;7.67;;
6757;SDS011;3416;53.074;8.822;2023-06-19T02:05:37;8.60;;;7.70;;
6757;SDS011;3416;53.074;8.822;2023-06-19T02:08:04;9.00;;;8.30;;
6757;SDS011;3416;53.074;8.822;2023-06-19T02:10:33;8.70;;;8.00;;
6757;SDS011;3416;53.074;8.822;2023-06-19T02:13:00;7.73;;;7.13;;
6757;SDS011;3416;53.074;8.822;2023-06-19T02:15:28;7.53;;;6.93;;
6757;SDS011;3416;53.074;8.822;2023-06-19T02:17:55;8.03;;;7.37;;
6757;SDS011;3416;53.074;8.822;2023-06-19T02:20:22;8.63;;;7.83;;
6757;SDS011;3416;53.074;8.822;2023-06-19T02:22:50;9.00;;;8.27;;
6757;SDS011;3416;53.074;8.822;2023-06-19T02:25:18;8.67;;;7.87;;
6757;SDS011;3416;53.074;8.822;2023-06-19T02:27:45;8.83;;;7.97;;
6757;SDS011;3416;53.074;8.822;2023-06-19T02:30:13;9.13;;;8.40;;
6757;SDS011;3416;53.074;8.822;2023-06-19T02:32:41;8.40;;;7.80;;
6757;SDS011;3416;53.074;8.822;2023-06-19T02:35:09;8.30;;;7.40;;
6757;SDS011;3416;53.074;8.822;2023-06-19T02:37:36;9.73;;;8.73;;
6757;SDS011;3416;53.074;8.822;2023-06-19T02:40:04;9.00;;;8.20;;
6757;SDS011;3416;53.074;8.822;2023-06-19T02:42:34;8.90;;;8.00;;
6757;SDS011;3416;53.074;8.822;2023-06-19T02:45:00;8.97;;;8.17;;
6757;SDS011;3416;53.074;8.822;2023-06-19T02:47:29;8.63;;;7.67;;
6757;SDS011;3416;53.074;8.822;2023-06-19T02:49:59;9.07;;;8.27;;
6757;SDS011;3416;53.074;8.822;2023-06-19T02:52:26;9.00;;;8.23;;
6757;SDS011;3416;53.074;8.822;2023-06-19T02:54:54;8.80;;;8.07;;
6757;SDS011;3416;53.074;8.822;2023-06-19T02:57:21;9.07;;;8.30;;
6757;SDS011;3416;53.074;8.822;2023-06-19T02:59:47;9.70;;;8.87;;
6757;SDS011;3416;53.074;8.822;2023-06-19T03:02:14;10.33;;;9.43;;
6757;SDS011;3416;53.074;8.822;2023-06-19T03:04:42;9.00;;;8.20;;
6757;SDS011;3416;53.074;8.822;2023-06-19T03:07:11;9.80;;;8.90;;
6757;SDS011;3416;53.074;8.822;2023-06-19T03:09:39;9.97;;;9.07;;
6757;SDS011;3416;53.074;8.822;2023-06-19T03:12:07;8.23;;;7.50;;
6757;SDS011;3416;53.074;8.822;2023-06-19T03:14:34;8.87;;;8.07;;
6757;SDS011;3416;53.074;8.822;2023-06-19T03:17:01;9.10;;;8.20;;
6757;SDS011;3416;53.074;8.822;2023-06-19T03:19:28;10.20;;;9.40;;
6757;SDS011;3416;53.074;8.822;2023-06-19T03:21:55;9.20;;;8.40;;
6757;SDS011;3416;53.074;8.822;2023-06-19T03:24:26;10.70;;;9.80;;
6757;SDS011;3416;53.074;8.822;2023-06-19T03:26:55;9.70;;;8.90;;
6757;SDS011;3416;53.074;8.822;2023-06-19T03:29:22;10.37;;;9.47;;
6757;SDS011;3416;53.074;8.822;2023-06-19T03:31:50;10.50;;;9.50;;
6757;SDS011;3416;53.074;8.822;2023-06-19T03:34:17;9.20;;;8.50;;
6757;SDS011;3416;53.074;8.822;2023-06-19T03:36:44;9.60;;;8.80;;
6757;SDS011;3416;53.074;8.822;2023-06-19T03:39:10;10.30;;;8.87;;
6757;SDS011;3416;53.074;8.822;2023-06-19T03:41:39;9.27;;;8.47;;
6757;SDS011;3416;53.074;8.822;2023-06-19T03:44:05;10.27;;;9.47;;
6757;SDS011;3416;53.074;8.822;2023-06-19T03:46:32;9.73;;;8.80;;
6757;SDS011;3416;53.074;8.822;2023-06-19T03:48:59;10.90;;;9.90;;
6757;SDS011;3416;53.074;8.822;2023-06-19T03:51:28;9.60;;;8.80;;
6757;SDS011;3416;53.074;8.822;2023-06-19T03:53:54;10.37;;;9.33;;
6757;SDS011;3416;53.074;8.822;2023-06-19T03:56:21;9.53;;;8.53;;
6757;SDS011;3416;53.074;8.822;2023-06-19T03:58:50;10.03;;;9.00;;
6757;SDS011;3416;53.074;8.822;2023-06-19T04:01:17;11.20;;;10.13;;
6757;SDS011;3416;53.074;8.822;2023-06-19T04:03:44;9.07;;;8.20;;
6757;SDS011;3416;53.074;8.822;2023-06-19T04:06:11;9.00;;;8.30;;
6757;SDS011;3416;53.074;8.822;2023-06-19T04:08:38;9.00;;;8.30;;
6757;SDS011;3416;53.074;8.822;2023-06-19T04:11:05;8.93;;;8.03;;
6757;SDS011;3416;53.074;8.822;2023-06-19T04:13:32;10.23;;;9.40;;
6757;SDS011;3416;53.074;8.822;2023-06-19T04:16:00;11.17;;;10.03;;
6757;SDS011;3416;53.074;8.822;2023-06-19T04:18:27;10.87;;;9.97;;
6757;SDS011;3416;53.074;8.822;2023-06-19T04:20:55;10.03;;;9.10;;
6757;SDS011;3416;53.074;8.822;2023-06-19T04:23:22;9.53;;;8.73;;
6757;SDS011;3416;53.074;8.822;2023-06-19T04:25:49;10.83;;;9.83;;
6757;SDS011;3416;53.074;8.822;2023-06-19T04:28:16;10.33;;;9.30;;
6757;SDS011;3416;53.074;8.822;2023-06-19T04:30:43;10.70;;;9.70;;
6757;SDS011;3416;53.074;8.822;2023-06-19T04:33:11;10.00;;;9.20;;
6757;SDS011;3416;53.074;8.822;2023-06-19T04:35:38;10.27;;;9.27;;
6757;SDS011;3416;53.074;8.822;2023-06-19T04:38:06;11.77;;;8.93;;
6757;SDS011;3416;53.074;8.822;2023-06-19T04:40:33;10.23;;;9.43;;
6757;SDS011;3416;53.074;8.822;2023-06-19T04:43:01;9.23;;;8.43;;
6757;SDS011;3416;53.074;8.822;2023-06-19T04:45:32;10.57;;;9.47;;
6757;SDS011;3416;53.074;8.822;2023-06-19T04:47:59;10.80;;;9.37;;
6757;SDS011;3416;53.074;8.822;2023-06-19T04:50:29;10.23;;;9.43;;
6757;SDS011;3416;53.074;8.822;2023-06-19T04:52:56;10.57;;;9.67;;
6757;SDS011;3416;53.074;8.822;2023-06-19T04:55:23;11.10;;;10.00;;
6757;SDS011;3416;53.074;8.822;2023-06-19T04:57:51;11.23;;;10.03;;
6757;SDS011;3416;53.074;8.822;2023-06-19T05:00:18;10.13;;;9.23;;
6757;SDS011;3416;53.074;8.822;2023-06-19T05:02:48;10.50;;;9.40;;
6757;SDS011;3416;53.074;8.822;2023-06-19T05:05:16;10.00;;;9.10;;
6757;SDS011;3416;53.074;8.822;2023-06-19T05:07:46;10.80;;;9.70;;
6757;SDS011;3416;53.074;8.822;2023-06-19T05:10:14;9.20;;;8.50;;
6757;SDS011;3416;53.074;8.822;2023-06-19T05:12:42;9.80;;;8.90;;
6757;SDS011;3416;53.074;8.822;2023-06-19T05:15:10;10.00;;;9.10;;
6757;SDS011;3416;53.074;8.822;2023-06-19T05:17:37;10.43;;;9.40;;
6757;SDS011;3416;53.074;8.822;2023-06-19T05:20:04;10.40;;;9.53;;
6757;SDS011;3416;53.074;8.822;2023-06-19T05:22:33;9.83;;;8.90;;
6757;SDS011;3416;53.074;8.822;2023-06-19T05:25:03;10.43;;;9.50;;
6757;SDS011;3416;53.074;8.822;2023-06-19T05:27:30;10.20;;;9.30;;
6757;SDS011;3416;53.074;8.822;2023-06-19T05:29:57;9.37;;;8.57;;
6757;SDS011;3416;53.074;8.822;2023-06-19T05:32:24;10.77;;;8.60;;
6757;SDS011;3416;53.074;8.822;2023-06-19T05:34:51;9.77;;;8.97;;
6757;SDS011;3416;53.074;8.822;2023-06-19T05:37:18;11.10;;;10.07;;
6757;SDS011;3416;53.074;8.822;2023-06-19T05:39:47;9.17;;;8.47;;
6757;SDS011;3416;53.074;8.822;2023-06-19T05:42:15;9.87;;;9.00;;
6757;SDS011;3416;53.074;8.822;2023-06-19T05:44:42;10.17;;;9.37;;
6757;SDS011;3416;53.074;8.822;2023-06-19T05:47:09;9.47;;;8.67;;
6757;SDS011;3416;53.074;8.822;2023-06-19T05:49:36;10.57;;;9.40;;
6757;SDS011;3416;53.074;8.822;2023-06-19T05:52:06;9.23;;;8.43;;
6757;SDS011;3416;53.074;8.822;2023-06-19T05:54:34;9.87;;;9.00;;
6757;SDS011;3416;53.074;8.822;2023-06-19T05:57:01;9.60;;;8.70;;
6757;SDS011;3416;53.074;8.822;2023-06-19T05:59:29;10.77;;;9.77;;
6757;SDS011;3416;53.074;8.822;2023-06-19T06:01:56;10.33;;;9.30;;
6757;SDS011;3416;53.074;8.822;2023-06-19T06:04:23;10.30;;;9.40;;
6757;SDS011;3416;53.074;8.822;2023-06-19T06:06:50;9.70;;;8.70;;
6757;SDS011;3416;53.074;8.822;2023-06-19T06:09:18;9.60;;;8.70;;
6757;SDS011;3416;53.074;8.822;2023-06-19T06:11:45;11.67;;;10.07;;
6757;SDS011;3416;53.074;8.822;2023-06-19T06:14:12;9.77;;;8.87;;
6757;SDS011;3416;53.074;8.822;2023-06-19T06:16:41;11.40;;;10.40;;
6757;SDS011;3416;53.074;8.822;2023-06-19T06:19:09;10.30;;;9.37;;
6757;SDS011;3416;53.074;8.822;2023-06-19T06:21:36;10.50;;;9.60;;
6757;SDS011;3416;53.074;8.822;2023-06-19T06:24:04;10.43;;;8.80;;
6757;SDS011;3416;53.074;8.822;2023-06-19T06:26:31;10.13;;;9.10;;
6757;SDS011;3416;53.074;8.822;2023-06-19T06:28:59;13.30;;;9.37;;
6757;SDS011;3416;53.074;8.822;2023-06-19T06:31:26;12.20;;;10.43;;
6757;SDS011;3416;53.074;8.822;2023-06-19T06:33:55;10.63;;;9.73;;
6757;SDS011;3416;53.074;8.822;2023-06-19T06:36:21;9.47;;;8.67;;
6757;SDS011;3416;53.074;8.822;2023-06-19T06:38:50;9.80;;;8.80;;
6757;SDS011;3416;53.074;8.822;2023-06-19T06:41:17;14.60;;;9.77;;
6757;SDS011;3416;53.074;8.822;2023-06-19T06:43:44;10.50;;;8.67;;
6757;SDS011;3416;53.074;8.822;2023-06-19T06:46:11;9.40;;;8.70;;
6757;SDS011;3416;53.074;8.822;2023-06-19T06:48:38;11.40;;;10.50;;
6757;SDS011;3416;53.074;8.822;2023-06-19T06:51:07;9.57;;;8.77;;
6757;SDS011;3416;53.074;8.822;2023-06-19T06:53:36;9.37;;;8.50;;
6757;SDS011;3416;53.074;8.822;2023-06-19T06:56:03;10.30;;;9.37;;
6757;SDS011;3416;53.074;8.822;2023-06-19T06:58:30;12.43;;;10.80;;
6757;SDS011;3416;53.074;8.822;2023-06-19T07:00:57;11.40;;;10.30;;
6757;SDS011;3416;53.074;8.822;2023-06-19T07:03:24;10.43;;;9.30;;
6757;SDS011;3416;53.074;8.822;2023-06-19T07:05:51;8.83;;;7.97;;
6757;SDS011;3416;53.074;8.822;2023-06-19T07:08:20;9.93;;;9.13;;
6757;SDS011;3416;53.074;8.822;2023-06-19T07:10:47;9.90;;;8.90;;
6757;SDS011;3416;53.074;8.822;2023-06-19T07:13:13;10.03;;;9.10;;
6757;SDS011;3416;53.074;8.822;2023-06-19T07:15:41;10.57;;;9.47;;
6757;SDS011;3416;53.074;8.822;2023-06-19T07:18:08;13.77;;;9.90;;
6757;SDS011;3416;53.074;8.822;2023-06-19T07:20:35;9.43;;;8.53;;
6757;SDS011;3416;53.074;8.822;2023-06-19T07:23:02;10.00;;;9.00;;
6757;SDS011;3416;53.074;8.822;2023-06-19T07:25:31;9.43;;;8.57;;
6757;SDS011;3416;53.074;8.822;2023-06-19T07:27:58;10.10;;;9.10;;
6757;SDS011;3416;53.074;8.822;2023-06-19T07:30:26;10.17;;;9.17;;
6757;SDS011;3416;53.074;8.822;2023-06-19T07:32:53;10.10;;;9.10;;
6757;SDS011;3416;53.074;8.822;2023-06-19T07:35:20;8.07;;;7.47;;
6757;SDS011;3416;53.074;8.822;2023-06-19T07:37:47;8.10;;;7.43;;
6757;SDS011;3416;53.074;8.822;2023-06-19T07:40:15;9.43;;;8.47;;
6757;SDS011;3416;53.074;8.822;2023-06-19T07:42:43;7.20;;;6.63;;
6757;SDS011;3416;53.074;8.822;2023-06-19T07:45:11;8.93;;;6.47;;
6757;SDS011;3416;53.074;8.822;2023-06-19T07:47:38;14.00;;;7.27;;
6757;SDS011;3416;53.074;8.822;2023-06-19T07:50:06;9.90;;;7.17;;
6757;SDS011;3416;53.074;8.822;2023-06-19T07:52:33;8.20;;;7.47;;
6757;SDS011;3416;53.074;8.822;2023-06-19T07:55:02;8.93;;;7.90;;
6757;SDS011;3416;53.074;8.822;2023-06-19T07:57:29;8.90;;;5.80;;
6757;SDS011;3416;53.074;8.822;2023-06-19T07:59:57;10.17;;;6.33;;
6757;SDS011;3416;53.074;8.822;2023-06-19T08:02:24;9.40;;;8.23;;
6757;SDS011;3416;53.074;8.822;2023-06-19T08:04:52;8.37;;;6.97;;
6757;SDS011;3416;53.074;8.822;2023-06-19T08:07:19;9.70;;;6.73;;
6757;SDS011;3416;53.074;8.822;2023-06-19T08:09:46;10.67;;;7.10;;
6757;SDS011;3416;53.074;8.822;2023-06-19T08:12:13;12.00;;;8.23;;
6757;SDS011;3416;53.074;8.822;2023-06-19T08:14:40;7.97;;;7.27;;
6757;SDS011;3416;53.074;8.822;2023-06-19T08:17:09;7.30;;;6.60;;
6757;SDS011;3416;53.074;8.822;2023-06-19T08:19:35;7.13;;;6.53;;
6757;SDS011;3416;53.074;8.822;2023-06-19T08:22:04;8.67;;;7.90;;
6757;SDS011;3416;53.074;8.822;2023-06-19T08:24:31;7.07;;;6.47;;
6757;SDS011;3416;53.074;8.822;2023-06-19T08:26:58;6.67;;;5.97;;
6757;SDS011;3416;53.074;8.822;2023-06-19T08:29:25;7.10;;;6.40;;
6757;SDS011;3416;53.074;8.822;2023-06-19T08:31:52;7.60;;;6.80;;
6757;SDS011;3416;53.074;8.822;2023-06-19T08:34:20;8.23;;;7.43;;
6757;SDS011;3416;53.074;8.822;2023-06-19T08:36:47;9.13;;;8.37;;
6757;SDS011;3416;53.074;8.822;2023-06-19T08:39:14;8.77;;;7.83;;
6757;SDS011;3416;53.074;8.822;2023-06-19T08:41:41;8.80;;;8.00;;
6757;SDS011;3416;53.074;8.822;2023-06-19T08:44:08;8.77;;;7.90;;
6757;SDS011;3416;53.074;8.822;2023-06-19T08:46:35;9.80;;;8.10;;
6757;SDS011;3416;53.074;8.822;2023-06-19T08:49:03;8.30;;;7.50;;
6757;SDS011;3416;53.074;8.822;2023-06-19T08:51:32;12.57;;;7.93;;
6757;SDS011;3416;53.074;8.822;2023-06-19T08:54:00;19.43;;;7.77;;
6757;SDS011;3416;53.074;8.822;2023-06-19T08:56:29;6.50;;;5.87;;
6757;SDS011;3416;53.074;8.822;2023-06-19T08:59:07;8.20;;;7.50;;
6757;SDS011;3416;53.074;8.822;2023-06-19T09:01:34;9.93;;;6.40;;
6757;SDS011;3416;53.074;8.822;2023-06-19T09:04:07;7.73;;;6.97;;
6757;SDS011;3416;53.074;8.822;2023-06-19T09:06:36;7.50;;;6.80;;
6757;SDS011;3416;53.074;8.822;2023-06-19T09:09:13;6.87;;;6.27;;
6757;SDS011;3416;53.074;8.822;2023-06-19T09:11:40;7.90;;;5.60;;
6757;SDS011;3416;53.074;8.822;2023-06-19T09:14:08;7.13;;;6.50;;
6757;SDS011;3416;53.074;8.822;2023-06-19T09:16:36;10.87;;;6.20;;
6757;SDS011;3416;53.074;8.822;2023-06-19T09:19:04;6.73;;;6.13;;
6757;SDS011;3416;53.074;8.822;2023-06-19T09:21:31;8.20;;;6.07;;
6757;SDS011;3416;53.074;8.822;2023-06-19T09:24:03;6.30;;;5.70;;
6757;SDS011;3416;53.074;8.822;2023-06-19T09:26:31;7.30;;;6.57;;
6757;SDS011;3416;53.074;8.822;2023-06-19T09:28:58;6.20;;;5.70;;
6757;SDS011;3416;53.074;8.822;2023-06-19T09:31:35;6.60;;;6.00;;
6757;SDS011;3416;53.074;8.822;2023-06-19T09:34:06;8.37;;;6.50;;
6757;SDS011;3416;53.074;8.822;2023-06-19T09:36:33;7.20;;;6.50;;
6757;SDS011;3416;53.074;8.822;2023-06-19T09:39:03;6.80;;;6.30;;
6757;SDS011;3416;53.074;8.822;2023-06-19T09:41:30;6.80;;;4.80;;
6757;SDS011;3416;53.074;8.822;2023-06-19T09:43:57;5.07;;;4.67;;
6757;SDS011;3416;53.074;8.822;2023-06-19T09:46:26;5.40;;;4.13;;
6757;SDS011;3416;53.074;8.822;2023-06-19T09:48:58;4.87;;;4.47;;
6757;SDS011;3416;53.074;8.822;2023-06-19T09:51:29;5.37;;;4.73;;
6757;SDS011;3416;53.074;8.822;2023-06-19T09:54:04;5.23;;;4.10;;
6757;SDS011;3416;53.074;8.822;2023-06-19T09:56:32;5.20;;;4.80;;
6757;SDS011;3416;53.074;8.822;2023-06-19T09:59:00;5.30;;;4.80;;
6757;SDS011;3416;53.074;8.822;2023-06-19T10:01:29;5.33;;;4.90;;
6757;SDS011;3416;53.074;8.822;2023-06-19T10:04:04;5.00;;;4.50;;
6757;SDS011;3416;53.074;8.822;2023-06-19T10:06:42;4.83;;;4.40;;
6757;SDS011;3416;53.074;8.822;2023-06-19T10:09:13;4.73;;;4.30;;
6757;SDS011;3416;53.074;8.822;2023-06-19T10:11:49;5.30;;;4.43;;
6757;SDS011;3416;53.074;8.822;2023-06-19T10:14:23;5.97;;;4.80;;
6757;SDS011;3416;53.074;8.822;2023-06-19T10:16:50;7.90;;;5.40;;
6757;SDS011;3416;53.074;8.822;2023-06-19T10:19:20;6.27;;;4.87;;
6757;SDS011;3416;53.074;8.822;2023-06-19T10:21:49;6.57;;;5.17;;
6757;SDS011;3416;53.074;8.822;2023-06-19T10:24:20;5.40;;;5.00;;
6757;SDS011;3416;53.074;8.822;2023-06-19T10:26:58;6.00;;;5.13;;
6757;SDS011;3416;53.074;8.822;2023-06-19T10:29:37;6.97;;;4.73;;
6757;SDS011;3416;53.074;8.822;2023-06-19T10:32:05;4.63;;;4.20;;
6757;SDS011;3416;53.074;8.822;2023-06-19T10:34:35;5.13;;;4.50;;
6757;SDS011;3416;53.074;8.822;2023-06-19T10:37:02;6.10;;;5.10;;
6757;SDS011;3416;53.074;8.822;2023-06-19T10:39:31;4.63;;;4.30;;
6757;SDS011;3416;53.074;8.822;2023-06-19T10:41:58;7.07;;;5.67;;
6757;SDS011;3416;53.074;8.822;2023-06-19T10:44:25;9.30;;;5.77;;
6757;SDS011;3416;53.074;8.822;2023-06-19T10:46:52;6.93;;;6.33;;
6757;SDS011;3416;53.074;8.822;2023-06-19T10:49:19;7.87;;;7.17;;
6757;SDS011;3416;53.074;8.822;2023-06-19T10:51:50;8.80;;;8.10;;
6757;SDS011;3416;53.074;8.822;2023-06-19T10:54:22;9.30;;;8.50;;
6757;SDS011;3416;53.074;8.822;2023-06-19T10:56:50;9.70;;;9.00;;
6757;SDS011;3416;53.074;8.822;2023-06-19T10:59:17;10.20;;;8.63;;
6757;SDS011;3416;53.074;8.822;2023-06-19T11:01:45;8.80;;;8.00;;
6757;SDS011;3416;53.074;8.822;2023-06-19T11:04:13;12.37;;;11.37;;
6757;SDS011;3416;53.074;8.822;2023-06-19T11:06:42;14.07;;;12.97;;
6757;SDS011;3416;53.074;8.822;2023-06-19T11:09:11;15.90;;;14.70;;
6757;SDS011;3416;53.074;8.822;2023-06-19T11:11:40;15.17;;;13.97;;
6757;SDS011;3416;53.074;8.822;2023-06-19T11:14:10;15.93;;;14.53;;
6757;SDS011;3416;53.074;8.822;2023-06-19T11:16:39;14.53;;;13.47;;
6757;SDS011;3416;53.074;8.822;2023-06-19T11:19:08;13.53;;;12.40;;
6757;SDS011;3416;53.074;8.822;2023-06-19T11:21:36;11.90;;;10.70;;
6757;SDS011;3416;53.074;8.822;2023-06-19T11:24:04;12.67;;;11.10;;
6757;SDS011;3416;53.074;8.822;2023-06-19T11:26:37;10.47;;;8.60;;
6757;SDS011;3416;53.074;8.822;2023-06-19T11:29:14;10.83;;;7.97;;
6757;SDS011;3416;53.074;8.822;2023-06-19T11:31:43;8.30;;;7.53;;
6757;SDS011;3416;53.074;8.822;2023-06-19T11:34:10;9.10;;;7.43;;
6757;SDS011;3416;53.074;8.822;2023-06-19T11:36:37;8.70;;;7.90;;
6757;SDS011;3416;53.074;8.822;2023-06-19T11:39:08;8.50;;;7.33;;
6757;SDS011;3416;53.074;8.822;2023-06-19T11:41:37;6.87;;;6.27;;
6757;SDS011;3416;53.074;8.822;2023-06-19T11:44:05;6.60;;;5.70;;
6757;SDS011;3416;53.074;8.822;2023-06-19T11:46:34;7.33;;;6.77;;
6757;SDS011;3416;53.074;8.822;2023-06-19T11:49:08;8.03;;;7.10;;
6757;SDS011;3416;53.074;8.822;2023-06-19T11:51:37;9.00;;;7.90;;
6757;SDS011;3416;53.074;8.822;2023-06-19T11:54:06;9.70;;;7.77;;
6757;SDS011;3416;53.074;8.822;2023-06-19T11:56:34;7.83;;;7.13;;
6757;SDS011;3416;53.074;8.822;2023-06-19T11:59:01;7.67;;;7.07;;
6757;SDS011;3416;53.074;8.822;2023-06-19T12:01:28;8.33;;;7.53;;
6757;SDS011;3416;53.074;8.822;2023-06-19T12:03:57;8.93;;;8.07;;
6757;SDS011;3416;53.074;8.822;2023-06-19T12:06:24;8.90;;;8.07;;
6757;SDS011;3416;53.074;8.822;2023-06-19T12:08:52;10.57;;;9.60;;
6757;SDS011;3416;53.074;8.822;2023-06-19T12:11:19;10.07;;;9.17;;
6757;SDS011;3416;53.074;8.822;2023-06-19T12:13:46;14.23;;;12.73;;
6757;SDS011;3416;53.074;8.822;2023-06-19T12:16:13;12.57;;;11.37;;
6757;SDS011;3416;53.074;8.822;2023-06-19T12:18:40;14.33;;;12.83;;
6757;SDS011;3416;53.074;8.822;2023-06-19T12:21:09;12.20;;;10.23;;
6757;SDS011;3416;53.074;8.822;2023-06-19T12:23:35;9.77;;;8.73;;
6757;SDS011;3416;53.074;8.822;2023-06-19T12:26:02;8.60;;;7.90;;
6757;SDS011;3416;53.074;8.822;2023-06-19T12:28:29;8.00;;;7.30;;
6757;SDS011;3416;53.074;8.822;2023-06-19T12:30:56;8.63;;;7.87;;
6757;SDS011;3416;53.074;8.822;2023-06-19T12:33:23;8.50;;;7.70;;
6757;SDS011;3416;53.074;8.822;2023-06-19T12:35:50;8.50;;;7.80;;
6757;SDS011;3416;53.074;8.822;2023-06-19T12:38:18;8.27;;;7.33;;
6757;SDS011;3416;53.074;8.822;2023-06-19T12:40:45;10.40;;;7.57;;
6757;SDS011;3416;53.074;8.822;2023-06-19T12:43:12;9.50;;;8.70;;
6757;SDS011;3416;53.074;8.822;2023-06-19T12:45:39;24.70;;;10.00;;
6757;SDS011;3416;53.074;8.822;2023-06-19T12:48:07;7.70;;;6.97;;
6757;SDS011;3416;53.074;8.822;2023-06-19T12:50:36;7.73;;;6.43;;
6757;SDS011;3416;53.074;8.822;2023-06-19T12:53:03;9.90;;;6.93;;
6757;SDS011;3416;53.074;8.822;2023-06-19T12:55:31;7.00;;;6.30;;
6757;SDS011;3416;53.074;8.822;2023-06-19T12:57:58;6.83;;;6.23;;
6757;SDS011;3416;53.074;8.822;2023-06-19T13:00:25;6.67;;;6.10;;
6757;SDS011;3416;53.074;8.822;2023-06-19T13:02:52;6.73;;;6.13;;
6757;SDS011;3416;53.074;8.822;2023-06-19T13:05:19;7.50;;;6.80;;
6757;SDS011;3416;53.074;8.822;2023-06-19T13:07:46;7.37;;;6.33;;
6757;SDS011;3416;53.074;8.822;2023-06-19T13:10:13;6.87;;;6.27;;
6757;SDS011;3416;53.074;8.822;2023-06-19T13:12:41;8.17;;;7.47;;
6757;SDS011;3416;53.074;8.822;2023-06-19T13:15:08;7.20;;;6.60;;
6757;SDS011;3416;53.074;8.822;2023-06-19T13:17:36;6.00;;;5.50;;
6757;SDS011;3416;53.074;8.822;2023-06-19T13:20:03;7.50;;;6.80;;
6757;SDS011;3416;53.074;8.822;2023-06-19T13:22:31;6.50;;;5.77;;
6757;SDS011;3416;53.074;8.822;2023-06-19T13:24:58;8.30;;;7.13;;
6757;SDS011;3416;53.074;8.822;2023-06-19T13:27:26;8.00;;;7.30;;
6757;SDS011;3416;53.074;8.822;2023-06-19T13:29:55;8.50;;;7.73;;
6757;SDS011;3416;53.074;8.822;2023-06-19T13:32:22;8.23;;;7.57;;
6757;SDS011;3416;53.074;8.822;2023-06-19T13:34:49;8.80;;;7.40;;
6757;SDS011;3416;53.074;8.822;2023-06-19T13:37:28;9.13;;;7.07;;
6757;SDS011;3416;53.074;8.822;2023-06-19T13:39:55;8.30;;;7.23;;
6757;SDS011;3416;53.074;8.822;2023-06-19T13:42:33;7.80;;;7.20;;
6757;SDS011;3416;53.074;8.822;2023-06-19T13:45:01;8.50;;;7.80;;
6757;SDS011;3416;53.074;8.822;2023-06-19T13:47:30;9.33;;;8.53;;
6757;SDS011;3416;53.074;8.822;2023-06-19T13:49:57;9.53;;;8.73;;
6757;SDS011;3416;53.074;8.822;2023-06-19T13:52:29;8.50;;;7.70;;
6757;SDS011;3416;53.074;8.822;2023-06-19T13:54:56;8.60;;;7.90;;
6757;SDS011;3416;53.074;8.822;2023-06-19T13:57:23;8.50;;;7.73;;
6757;SDS011;3416;53.074;8.822;2023-06-19T13:59:50;11.17;;;10.17;;
6757;SDS011;3416;53.074;8.822;2023-06-19T14:02:18;9.67;;;8.97;;
6757;SDS011;3416;53.074;8.822;2023-06-19T14:04:45;10.00;;;9.20;;
6757;SDS011;3416;53.074;8.822;2023-06-19T14:07:12;11.13;;;10.03;;
6757;SDS011;3416;53.074;8.822;2023-06-19T14:09:41;10.47;;;9.57;;
6757;SDS011;3416;53.074;8.822;2023-06-19T14:12:09;10.30;;;9.60;;
6757;SDS011;3416;53.074;8.822;2023-06-19T14:14:37;10.00;;;9.20;;
6757;SDS011;3416;53.074;8.822;2023-06-19T14:17:04;9.57;;;8.87;;
6757;SDS011;3416;53.074;8.822;2023-06-19T14:19:32;8.00;;;7.50;;
6757;SDS011;3416;53.074;8.822;2023-06-19T14:21:59;9.93;;;9.17;;
6757;SDS011;3416;53.074;8.822;2023-06-19T14:24:27;8.70;;;8.00;;
6757;SDS011;3416;53.074;8.822;2023-06-19T14:26:54;9.27;;;7.83;;
6757;SDS011;3416;53.074;8.822;2023-06-19T14:29:21;8.47;;;7.77;;
6757;SDS011;3416;53.074;8.822;2023-06-19T14:31:47;9.00;;;8.20;;
6757;SDS011;3416;53.074;8.822;2023-06-19T14:34:18;8.53;;;7.93;;
6757;SDS011;3416;53.074;8.822;2023-06-19T14:36:46;9.00;;;8.30;;
6757;SDS011;3416;53.074;8.822;2023-06-19T14:39:13;7.60;;;6.97;;
6757;SDS011;3416;53.074;8.822;2023-06-19T14:41:41;8.37;;;7.67;;
6757;SDS011;3416;53.074;8.822;2023-06-19T14:44:08;9.67;;;8.00;;
6757;SDS011;3416;53.074;8.822;2023-06-19T14:46:35;8.87;;;8.17;;
6757;SDS011;3416;53.074;8.822;2023-06-19T14:49:04;9.60;;;8.80;;
6757;SDS011;3416;53.074;8.822;2023-06-19T14:51:31;9.47;;;8.67;;
6757;SDS011;3416;53.074;8.822;2023-06-19T14:54:06;8.43;;;7.73;;
6757;SDS011;3416;53.074;8.822;2023-06-19T14:56:33;8.93;;;8.10;;
6757;SDS011;3416;53.074;8.822;2023-06-19T14:59:00;9.27;;;8.20;;
6757;SDS011;3416;53.074;8.822;2023-06-19T15:01:27;9.93;;;8.20;;
6757;SDS011;3416;53.074;8.822;2023-06-19T15:03:56;8.30;;;7.50;;
6757;SDS011;3416;53.074;8.822;2023-06-19T15:06:23;7.07;;;6.40;;
6757;SDS011;3416;53.074;8.822;2023-06-19T15:08:57;8.07;;;7.30;;
6757;SDS011;3416;53.074;8.822;2023-06-19T15:11:25;7.50;;;6.90;;
6757;SDS011;3416;53.074;8.822;2023-06-19T15:13:52;6.87;;;6.00;;
6757;SDS011;3416;53.074;8.822;2023-06-19T15:16:21;6.50;;;5.80;;